Time;durP1;ratioP1;P1;durP2;ratioP2;P2;SDS_P1;SDS_P2;PMS_P1;PMS_P2;Temp;Humidity;BMP_temperature;BMP_pressure;BME280_temperature;BME280_humidity;BME280_pressure;Samples;Min_cycle;Max_cycle;Signal;HPM_P1;HPM_P2
2023/04/12 00:00:53;;;;;;;11.13;1.85;;;;;;;;;;4996587;28;20224;-66
2023/04/12 00:03:19;;;;;;;8.27;1.70;;;;;;;;;;5000651;28;20722;-66
2023/04/12 00:05:45;;;;;;;7.80;2.08;;;;;;;;;;5002031;28;20772;-66
2023/04/12 00:08:11;;;;;;;9.57;1.98;;;;;;;;;;5001534;28;20212;-65
2023/04/12 00:10:36;;;;;;;8.23;1.65;;;;;;;;;;5018730;28;20230;-66
2023/04/12 00:13:02;;;;;;;6.07;1.60;;;;;;;;;;5020338;28;20240;-66
2023/04/12 00:15:27;;;;;;;10.20;2.13;;;;;;;;;;5020491;28;20683;-66
2023/04/12 00:17:52;;;;;;;8.68;1.70;;;;;;;;;;5012712;28;20679;-66
2023/04/12 00:20:18;;;;;;;10.07;2.00;;;;;;;;;;5012916;28;20212;-66
2023/04/12 00:22:43;;;;;;;13.55;2.53;;;;;;;;;;5002984;28;20231;-66
2023/04/12 00:25:09;;;;;;;8.35;1.85;;;;;;;;;;5000586;28;20712;-66
2023/04/12 00:27:34;;;;;;;10.63;2.50;;;;;;;;;;5018713;28;20362;-65
2023/04/12 00:29:59;;;;;;;6.40;1.98;;;;;;;;;;5020834;28;20287;-66
2023/04/12 00:32:25;;;;;;;6.45;1.63;;;;;;;;;;5002778;28;20587;-66
2023/04/12 00:34:51;;;;;;;7.55;1.83;;;;;;;;;;5001347;28;20227;-66
2023/04/12 00:37:16;;;;;;;9.80;1.80;;;;;;;;;;5001081;28;20255;-66
2023/04/12 00:39:41;;;;;;;10.23;2.22;;;;;;;;;;4995484;28;20224;-66
2023/04/12 00:42:06;;;;;;;7.05;1.83;;;;;;;;;;5010456;28;20793;-65
2023/04/12 00:44:32;;;;;;;10.10;1.98;;;;;;;;;;5012659;28;20227;-66
2023/04/12 00:46:57;;;;;;;10.00;1.83;;;;;;;;;;5013539;28;20211;-66
2023/04/12 00:49:23;;;;;;;8.32;2.03;;;;;;;;;;5000691;28;20223;-66
2023/04/12 00:51:48;;;;;;;10.68;2.10;;;;;;;;;;5000261;28;20215;-66
2023/04/12 00:54:16;;;;;;;9.75;2.33;;;;;;;;;;5000303;28;20228;-65
2023/04/12 00:56:43;;;;;;;5.78;2.00;;;;;;;;;;5010873;28;20216;-66
2023/04/12 00:59:09;;;;;;;10.50;2.53;;;;;;;;;;5000103;28;20221;-65
2023/04/12 01:01:34;;;;;;;9.60;2.38;;;;;;;;;;5015207;28;20207;-66
2023/04/12 01:04:00;;;;;;;7.05;2.13;;;;;;;;;;5013029;28;20224;-66
2023/04/12 01:06:31;;;;;;;8.60;1.85;;;;;;;;;;5011179;28;21044;-66
2023/04/12 01:08:57;;;;;;;9.95;2.47;;;;;;;;;;5016153;28;20251;-66
2023/04/12 01:11:22;;;;;;;7.65;1.85;;;;;;;;;;5019333;28;20216;-66
2023/04/12 01:13:51;;;;;;;9.13;2.05;;;;;;;;;;5019545;28;20226;-66
2023/04/12 01:16:21;;;;;;;7.97;1.88;;;;;;;;;;5019870;28;20691;-66
2023/04/12 01:18:50;;;;;;;7.50;1.90;;;;;;;;;;5002677;28;20215;-66
2023/04/12 01:21:16;;;;;;;6.68;1.85;;;;;;;;;;5017644;28;20278;-66
2023/04/12 01:23:47;;;;;;;10.02;2.10;;;;;;;;;;5007733;28;20699;-66
2023/04/12 01:26:20;;;;;;;9.77;2.20;;;;;;;;;;5012197;28;20319;-66
2023/04/12 01:28:45;;;;;;;6.30;1.90;;;;;;;;;;5022346;28;20234;-66
2023/04/12 01:31:11;;;;;;;7.65;2.03;;;;;;;;;;5028206;28;20220;-66
2023/04/12 01:33:37;;;;;;;7.80;2.00;;;;;;;;;;5028891;28;20278;-66
2023/04/12 01:36:04;;;;;;;8.98;2.03;;;;;;;;;;5028802;28;20212;-66
2023/04/12 01:38:29;;;;;;;9.77;2.22;;;;;;;;;;5028706;28;20219;-66
2023/04/12 01:40:54;;;;;;;8.00;2.20;;;;;;;;;;5029996;28;20311;-66
2023/04/12 01:43:20;;;;;;;7.68;2.47;;;;;;;;;;5028795;28;20220;-66
2023/04/12 01:45:45;;;;;;;9.30;2.45;;;;;;;;;;5029879;28;20236;-66
2023/04/12 01:48:11;;;;;;;7.18;2.20;;;;;;;;;;5028672;28;20315;-66
2023/04/12 01:50:55;;;;;;;9.75;2.10;;;;;;;;;;5029822;28;20218;-66
2023/04/12 01:53:28;;;;;;;8.75;2.45;;;;;;;;;;5017246;28;21350;-66
2023/04/12 01:55:55;;;;;;;7.90;2.00;;;;;;;;;;4991962;28;20700;-66
2023/04/12 01:58:21;;;;;;;6.60;2.00;;;;;;;;;;4993786;28;20597;-66
2023/04/12 02:00:46;;;;;;;8.35;2.33;;;;;;;;;;4995954;28;20216;-67
2023/04/12 02:03:11;;;;;;;10.10;2.30;;;;;;;;;;4989715;28;20308;-66
2023/04/12 02:05:36;;;;;;;8.07;2.40;;;;;;;;;;4982567;28;20309;-64
2023/04/12 02:08:02;;;;;;;8.07;2.45;;;;;;;;;;4968171;28;20214;-65
2023/04/12 02:10:28;;;;;;;9.25;2.05;;;;;;;;;;4958998;28;20382;-66
2023/04/12 02:12:54;;;;;;;9.32;2.20;;;;;;;;;;4960023;28;20619;-66
2023/04/12 02:15:20;;;;;;;5.22;1.92;;;;;;;;;;4964478;28;20226;-66
2023/04/12 02:17:45;;;;;;;10.40;2.03;;;;;;;;;;4963780;28;20225;-66
2023/04/12 02:20:11;;;;;;;7.45;1.90;;;;;;;;;;4964295;28;20902;-66
2023/04/12 02:22:36;;;;;;;8.00;1.75;;;;;;;;;;4964339;28;20225;-66
2023/04/12 02:25:01;;;;;;;6.07;1.60;;;;;;;;;;4964203;28;20622;-65
2023/04/12 02:27:26;;;;;;;8.38;1.88;;;;;;;;;;4963847;28;20293;-66
2023/04/12 02:29:52;;;;;;;8.38;1.80;;;;;;;;;;4957351;28;20214;-66
2023/04/12 02:32:17;;;;;;;9.35;1.85;;;;;;;;;;4955689;28;20248;-66
2023/04/12 02:34:43;;;;;;;7.17;1.97;;;;;;;;;;4961172;28;20212;-66
2023/04/12 02:37:08;;;;;;;7.72;1.67;;;;;;;;;;4966063;28;20582;-66
2023/04/12 02:39:34;;;;;;;7.82;1.85;;;;;;;;;;4963492;28;20217;-66
2023/04/12 02:42:00;;;;;;;11.02;2.10;;;;;;;;;;4964770;28;20213;-66
2023/04/12 02:44:27;;;;;;;7.32;2.22;;;;;;;;;;4963196;28;20224;-66
2023/04/12 02:46:53;;;;;;;6.63;1.85;;;;;;;;;;4964309;28;20226;-66
2023/04/12 02:49:18;;;;;;;7.10;2.20;;;;;;;;;;4963805;28;20202;-66
2023/04/12 02:51:43;;;;;;;5.65;1.80;;;;;;;;;;4977613;28;20299;-66
2023/04/12 02:54:09;;;;;;;7.05;2.05;;;;;;;;;;4989889;28;20592;-65
2023/04/12 02:56:34;;;;;;;7.97;1.70;;;;;;;;;;4984012;28;20426;-66
2023/04/12 02:59:00;;;;;;;6.82;1.80;;;;;;;;;;5014350;28;20580;-66
2023/04/12 03:01:25;;;;;;;7.35;1.70;;;;;;;;;;5022274;28;20488;-66
2023/04/12 03:03:50;;;;;;;8.23;2.30;;;;;;;;;;5022226;28;20224;-66
2023/04/12 03:06:16;;;;;;;8.45;1.90;;;;;;;;;;5020961;28;20298;-65
2023/04/12 03:08:41;;;;;;;6.93;1.83;;;;;;;;;;5022294;28;20573;-66
2023/04/12 03:11:06;;;;;;;9.35;2.25;;;;;;;;;;5020986;28;20217;-64
2023/04/12 03:13:31;;;;;;;9.50;2.00;;;;;;;;;;5018586;28;20212;-66
2023/04/12 03:15:57;;;;;;;7.15;1.98;;;;;;;;;;5014393;28;20719;-66
2023/04/12 03:18:22;;;;;;;6.85;1.95;;;;;;;;;;5013925;28;20303;-66
2023/04/12 03:20:48;;;;;;;7.13;1.90;;;;;;;;;;4995914;28;20777;-66
2023/04/12 03:23:13;;;;;;;7.23;2.13;;;;;;;;;;4992045;28;20232;-66
2023/04/12 03:25:39;;;;;;;6.28;1.90;;;;;;;;;;4995587;28;20232;-66
2023/04/12 03:28:05;;;;;;;7.17;1.80;;;;;;;;;;4992702;28;20208;-65
2023/04/12 03:30:31;;;;;;;6.35;1.90;;;;;;;;;;5012283;28;20269;-66
2023/04/12 03:32:56;;;;;;;10.63;1.80;;;;;;;;;;5013243;28;20215;-66
2023/04/12 03:35:22;;;;;;;7.57;2.00;;;;;;;;;;5009047;28;20212;-66
2023/04/12 03:37:47;;;;;;;7.63;1.80;;;;;;;;;;5008228;28;20783;-66
2023/04/12 03:40:12;;;;;;;5.55;1.67;;;;;;;;;;5004026;28;20752;-66
2023/04/12 03:42:38;;;;;;;7.50;1.90;;;;;;;;;;5002365;28;20617;-66
2023/04/12 03:45:03;;;;;;;8.37;1.77;;;;;;;;;;5015998;28;20649;-66
2023/04/12 03:47:28;;;;;;;7.40;1.75;;;;;;;;;;5003478;28;20248;-66
2023/04/12 03:49:54;;;;;;;5.75;1.70;;;;;;;;;;4989773;28;20228;-66
2023/04/12 03:52:19;;;;;;;5.53;1.77;;;;;;;;;;5015682;28;20223;-66
2023/04/12 03:54:44;;;;;;;7.50;1.70;;;;;;;;;;4992677;28;20224;-66
2023/04/12 03:57:10;;;;;;;5.97;1.90;;;;;;;;;;5019197;28;20216;-65
2023/04/12 03:59:35;;;;;;;10.37;1.90;;;;;;;;;;5009768;28;20705;-66
2023/04/12 04:02:00;;;;;;;8.87;1.97;;;;;;;;;;5009971;28;20224;-64
2023/04/12 04:04:26;;;;;;;6.38;1.83;;;;;;;;;;4993643;28;20333;-66
2023/04/12 04:06:51;;;;;;;6.93;2.20;;;;;;;;;;4991846;28;20413;-66
2023/04/12 04:09:16;;;;;;;8.37;1.93;;;;;;;;;;4989244;28;20216;-66
2023/04/12 04:11:42;;;;;;;8.50;2.03;;;;;;;;;;4991832;28;20747;-66
2023/04/12 04:14:07;;;;;;;5.80;2.05;;;;;;;;;;4991191;28;20217;-65
2023/04/12 04:16:33;;;;;;;5.82;2.10;;;;;;;;;;4990743;28;20219;-65
2023/04/12 04:18:58;;;;;;;6.13;2.27;;;;;;;;;;4991535;28;20225;-66
2023/04/12 04:21:23;;;;;;;6.65;1.92;;;;;;;;;;4990109;28;20267;-66
2023/04/12 04:23:50;;;;;;;6.95;2.30;;;;;;;;;;5007955;28;20291;-66
2023/04/12 04:26:16;;;;;;;7.73;1.87;;;;;;;;;;5028952;28;20228;-65
2023/04/12 04:28:43;;;;;;;7.30;2.10;;;;;;;;;;5031013;28;20249;-66
2023/04/12 04:31:09;;;;;;;5.73;1.93;;;;;;;;;;4999926;28;20228;-66
2023/04/12 04:33:35;;;;;;;6.35;2.42;;;;;;;;;;4994325;28;20278;-65
2023/04/12 04:36:00;;;;;;;6.53;1.98;;;;;;;;;;4993637;28;20220;-67
2023/04/12 04:38:26;;;;;;;5.18;2.05;;;;;;;;;;5011146;28;20637;-66
2023/04/12 04:40:52;;;;;;;6.37;1.80;;;;;;;;;;5020303;28;20224;-65
2023/04/12 04:43:18;;;;;;;5.67;1.97;;;;;;;;;;5020234;28;20229;-66
2023/04/12 04:45:45;;;;;;;7.75;1.90;;;;;;;;;;5017963;28;20695;-66
2023/04/12 04:48:10;;;;;;;6.90;1.75;;;;;;;;;;5018239;28;20224;-66
2023/04/12 04:50:35;;;;;;;6.20;1.67;;;;;;;;;;5020619;28;20234;-66
2023/04/12 04:53:01;;;;;;;5.63;2.00;;;;;;;;;;5016795;28;20227;-65
2023/04/12 04:55:26;;;;;;;6.33;2.10;;;;;;;;;;4995872;28;20384;-66
2023/04/12 04:57:51;;;;;;;6.13;2.37;;;;;;;;;;4993328;28;20216;-66
2023/04/12 05:00:17;;;;;;;6.73;2.43;;;;;;;;;;4992311;28;20667;-65
2023/04/12 05:02:42;;;;;;;6.63;2.00;;;;;;;;;;4998344;28;20266;-65
2023/04/12 05:05:08;;;;;;;6.73;1.97;;;;;;;;;;4999685;28;20244;-65
2023/04/12 05:07:35;;;;;;;5.47;1.80;;;;;;;;;;5015209;28;20270;-66
2023/04/12 05:10:01;;;;;;;6.78;2.20;;;;;;;;;;5000712;28;20224;-66
2023/04/12 05:12:26;;;;;;;6.90;2.20;;;;;;;;;;4999854;28;20311;-66
2023/04/12 05:14:51;;;;;;;5.17;1.83;;;;;;;;;;5000606;28;20354;-66
2023/04/12 05:17:17;;;;;;;5.05;1.98;;;;;;;;;;4997588;28;20868;-65
2023/04/12 05:19:43;;;;;;;5.63;1.80;;;;;;;;;;5007017;28;20267;-65
2023/04/12 05:22:09;;;;;;;4.65;1.98;;;;;;;;;;4992415;28;20216;-65
2023/04/12 05:24:34;;;;;;;4.85;2.05;;;;;;;;;;4997047;28;20238;-65
2023/04/12 05:26:59;;;;;;;7.25;2.10;;;;;;;;;;4999650;28;20675;-65
2023/04/12 05:29:24;;;;;;;6.13;2.10;;;;;;;;;;5000586;28;20550;-65
2023/04/12 05:31:50;;;;;;;4.20;2.05;;;;;;;;;;5000372;28;20251;-65
2023/04/12 05:34:15;;;;;;;3.28;1.70;;;;;;;;;;5002947;28;20803;-65
2023/04/12 05:36:40;;;;;;;5.70;2.15;;;;;;;;;;5022119;28;20222;-65
2023/04/12 05:39:05;;;;;;;4.77;2.10;;;;;;;;;;5022762;28;20224;-64
2023/04/12 05:41:31;;;;;;;6.75;2.20;;;;;;;;;;5015930;28;20539;-65
2023/04/12 05:43:56;;;;;;;5.07;2.30;;;;;;;;;;5016246;28;21109;-65
2023/04/12 05:46:21;;;;;;;6.95;2.50;;;;;;;;;;5016033;28;20620;-64
2023/04/12 05:48:47;;;;;;;4.97;2.57;;;;;;;;;;5005912;28;20683;-65
2023/04/12 05:51:12;;;;;;;4.45;2.10;;;;;;;;;;5003589;28;20228;-65
2023/04/12 05:53:37;;;;;;;6.20;2.60;;;;;;;;;;5004245;28;20290;-64
2023/04/12 05:56:03;;;;;;;7.40;2.30;;;;;;;;;;5017661;28;20563;-64
2023/04/12 05:58:28;;;;;;;4.50;2.03;;;;;;;;;;5015955;28;20551;-65
2023/04/12 06:00:54;;;;;;;5.10;2.55;;;;;;;;;;5031529;28;20254;-66
2023/04/12 06:03:20;;;;;;;5.95;2.22;;;;;;;;;;5026152;28;20286;-66
2023/04/12 06:05:45;;;;;;;5.63;2.22;;;;;;;;;;5013408;28;20592;-66
2023/04/12 06:08:13;;;;;;;6.68;2.40;;;;;;;;;;5011737;28;20303;-64
2023/04/12 06:10:38;;;;;;;4.47;2.45;;;;;;;;;;5011668;28;20212;-64
2023/04/12 06:13:04;;;;;;;4.32;2.30;;;;;;;;;;5013080;28;20228;-65
2023/04/12 06:15:30;;;;;;;6.23;2.33;;;;;;;;;;5032414;28;20651;-65
2023/04/12 06:17:57;;;;;;;4.93;2.40;;;;;;;;;;5012988;28;20208;-66
2023/04/12 06:20:22;;;;;;;6.47;2.47;;;;;;;;;;5011378;28;20219;-66
2023/04/12 06:22:47;;;;;;;5.65;2.50;;;;;;;;;;5014760;28;20295;-66
2023/04/12 06:25:13;;;;;;;5.93;2.30;;;;;;;;;;5040718;28;20261;-65
2023/04/12 06:27:38;;;;;;;6.10;2.35;;;;;;;;;;5052922;28;20219;-66
2023/04/12 06:30:03;;;;;;;5.20;2.40;;;;;;;;;;5051751;28;20226;-65
2023/04/12 06:32:29;;;;;;;6.37;2.40;;;;;;;;;;5052943;28;20579;-66
2023/04/12 06:34:54;;;;;;;4.33;2.40;;;;;;;;;;5052661;28;20687;-66
2023/04/12 06:37:20;;;;;;;6.00;2.53;;;;;;;;;;5051464;28;21750;-66
2023/04/12 06:39:45;;;;;;;7.20;4.15;;;;;;;;;;5050743;28;20934;-65
2023/04/12 06:42:11;;;;;;;5.32;2.92;;;;;;;;;;5028514;28;20285;-65
2023/04/12 06:44:36;;;;;;;6.83;3.00;;;;;;;;;;5030072;28;20441;-67
2023/04/12 06:47:02;;;;;;;5.65;2.63;;;;;;;;;;5014361;28;20795;-65
2023/04/12 06:49:27;;;;;;;6.28;2.80;;;;;;;;;;5016291;28;20299;-66
2023/04/12 06:51:53;;;;;;;5.18;2.72;;;;;;;;;;5031389;28;20299;-66
2023/04/12 06:54:18;;;;;;;5.00;2.47;;;;;;;;;;5030500;28;20565;-66
2023/04/12 06:56:43;;;;;;;6.17;2.53;;;;;;;;;;5032617;28;20246;-66
2023/04/12 06:59:09;;;;;;;6.43;2.60;;;;;;;;;;5034048;28;20608;-65
2023/04/12 07:01:34;;;;;;;4.65;2.78;;;;;;;;;;5032020;28;20211;-66
2023/04/12 07:03:59;;;;;;;6.28;3.10;;;;;;;;;;5028335;28;20425;-66
2023/04/12 07:06:26;;;;;;;5.20;2.60;;;;;;;;;;5034700;28;20208;-66
2023/04/12 07:08:51;;;;;;;5.18;2.45;;;;;;;;;;5035130;28;20319;-66
2023/04/12 07:11:16;;;;;;;5.93;2.70;;;;;;;;;;5028762;28;20310;-65
2023/04/12 07:13:42;;;;;;;7.53;2.78;;;;;;;;;;5031403;28;20219;-67
2023/04/12 07:16:07;;;;;;;6.40;2.67;;;;;;;;;;5031380;28;20258;-66
2023/04/12 07:18:32;;;;;;;5.53;2.40;;;;;;;;;;5028881;28;20269;-67
2023/04/12 07:20:58;;;;;;;4.45;2.00;;;;;;;;;;5031131;28;20338;-67
2023/04/12 07:23:24;;;;;;;5.38;2.20;;;;;;;;;;5024749;28;20558;-67
2023/04/12 07:25:49;;;;;;;3.55;2.17;;;;;;;;;;5013314;28;20239;-67
2023/04/12 07:28:14;;;;;;;4.18;2.30;;;;;;;;;;5012338;28;20216;-66
2023/04/12 07:30:40;;;;;;;5.88;2.50;;;;;;;;;;5013842;28;20227;-67
2023/04/12 07:33:05;;;;;;;5.93;2.50;;;;;;;;;;5012953;28;20286;-66
2023/04/12 07:35:31;;;;;;;4.45;2.17;;;;;;;;;;5010571;28;20200;-67
2023/04/12 07:37:56;;;;;;;6.93;2.50;;;;;;;;;;5010124;28;20680;-67
2023/04/12 07:40:22;;;;;;;4.25;2.20;;;;;;;;;;5012831;28;20652;-66
2023/04/12 07:42:47;;;;;;;3.50;1.88;;;;;;;;;;5012708;28;20680;-67
2023/04/12 07:45:12;;;;;;;3.22;1.60;;;;;;;;;;5013096;28;20304;-66
2023/04/12 07:47:38;;;;;;;2.65;1.42;;;;;;;;;;5018311;28;20269;-67
2023/04/12 07:50:04;;;;;;;2.15;1.30;;;;;;;;;;5033293;28;20291;-67
2023/04/12 07:52:29;;;;;;;6.90;4.47;;;;;;;;;;5031822;28;20211;-67
2023/04/12 07:54:54;;;;;;;11.40;5.30;;;;;;;;;;5031390;28;20322;-67
2023/04/12 07:57:20;;;;;;;51.83;26.17;;;;;;;;;;5033039;28;20641;-66
2023/04/12 07:59:45;;;;;;;3.08;1.90;;;;;;;;;;5033481;28;20215;-67
2023/04/12 08:02:11;;;;;;;4.03;1.60;;;;;;;;;;5032207;28;20685;-66
2023/04/12 08:04:37;;;;;;;2.95;1.48;;;;;;;;;;5033058;28;20281;-67
2023/04/12 08:07:02;;;;;;;3.85;1.80;;;;;;;;;;5032714;28;20211;-66
2023/04/12 08:09:27;;;;;;;3.55;1.80;;;;;;;;;;5032299;28;20666;-67
2023/04/12 08:11:53;;;;;;;2.92;1.80;;;;;;;;;;5032885;28;20216;-67
2023/04/12 08:14:18;;;;;;;4.82;1.88;;;;;;;;;;5032287;28;20634;-67
2023/04/12 08:16:44;;;;;;;5.13;2.10;;;;;;;;;;5032466;28;20297;-67
2023/04/12 08:19:09;;;;;;;5.00;2.00;;;;;;;;;;5032614;28;20211;-67
2023/04/12 08:21:34;;;;;;;4.97;2.28;;;;;;;;;;5033043;28;20690;-67
2023/04/12 08:24:00;;;;;;;4.00;2.15;;;;;;;;;;5031576;28;20215;-67
2023/04/12 08:26:28;;;;;;;4.95;2.15;;;;;;;;;;5032533;28;20217;-67
2023/04/12 08:28:53;;;;;;;6.47;2.45;;;;;;;;;;5032541;28;20215;-67
2023/04/12 08:31:19;;;;;;;8.00;3.05;;;;;;;;;;5031874;28;20285;-67
2023/04/12 08:33:44;;;;;;;5.30;2.67;;;;;;;;;;5031500;28;20211;-67
2023/04/12 08:36:10;;;;;;;10.27;2.90;;;;;;;;;;5031490;28;20238;-67
2023/04/12 08:38:36;;;;;;;5.05;2.50;;;;;;;;;;5032643;28;20223;-67
2023/04/12 08:41:03;;;;;;;5.65;2.50;;;;;;;;;;5032279;28;20246;-66
2023/04/12 08:43:28;;;;;;;8.02;2.90;;;;;;;;;;5030520;28;20663;-67
2023/04/12 08:45:54;;;;;;;8.02;2.53;;;;;;;;;;5030862;28;20320;-68
2023/04/12 08:48:21;;;;;;;7.03;3.15;;;;;;;;;;5030735;28;20290;-68
2023/04/12 08:50:46;;;;;;;7.18;2.80;;;;;;;;;;5030523;28;20255;-67
2023/04/12 08:53:12;;;;;;;8.27;3.30;;;;;;;;;;5030249;28;20243;-67
2023/04/12 08:55:37;;;;;;;12.15;3.10;;;;;;;;;;5032422;28;20287;-67
2023/04/12 08:58:06;;;;;;;7.15;2.78;;;;;;;;;;5031029;28;20265;-67
2023/04/12 09:00:31;;;;;;;6.63;2.55;;;;;;;;;;5032141;28;20217;-67
2023/04/12 09:02:56;;;;;;;8.55;2.58;;;;;;;;;;5032446;28;20238;-67
2023/04/12 09:05:29;;;;;;;7.85;2.78;;;;;;;;;;5030990;28;20247;-67
2023/04/12 09:07:54;;;;;;;13.15;4.43;;;;;;;;;;5031710;28;20726;-67
2023/04/12 09:10:28;;;;;;;9.13;2.70;;;;;;;;;;5031462;28;20214;-67
2023/04/12 09:12:54;;;;;;;9.48;2.45;;;;;;;;;;5031655;28;20242;-67
2023/04/12 09:15:19;;;;;;;11.90;2.70;;;;;;;;;;5031514;28;20239;-67
2023/04/12 09:17:45;;;;;;;12.90;2.72;;;;;;;;;;5032422;28;20223;-68
2023/04/12 09:20:11;;;;;;;9.85;2.45;;;;;;;;;;5029844;28;20243;-67
2023/04/12 09:22:38;;;;;;;13.90;2.30;;;;;;;;;;5032111;28;20234;-68
2023/04/12 09:25:04;;;;;;;10.80;2.30;;;;;;;;;;5031372;28;20230;-67
2023/04/12 09:27:29;;;;;;;12.30;2.70;;;;;;;;;;5031435;28;20215;-67
2023/04/12 09:30:06;;;;;;;15.52;2.75;;;;;;;;;;5030593;28;20223;-68
2023/04/12 09:32:31;;;;;;;11.77;2.30;;;;;;;;;;5031320;28;20239;-68
2023/04/12 09:35:01;;;;;;;13.23;2.50;;;;;;;;;;5032239;28;20247;-68
2023/04/12 09:37:26;;;;;;;16.10;2.95;;;;;;;;;;5031938;28;20672;-68
2023/04/12 09:39:58;;;;;;;14.32;2.50;;;;;;;;;;5031231;28;20204;-68
2023/04/12 09:42:24;;;;;;;8.73;2.58;;;;;;;;;;5031689;28;20298;-68
2023/04/12 09:44:49;;;;;;;11.68;2.60;;;;;;;;;;5031773;28;20220;-68
2023/04/12 09:47:14;;;;;;;11.00;2.53;;;;;;;;;;5030841;28;20682;-68
2023/04/12 09:49:40;;;;;;;12.38;2.78;;;;;;;;;;5032097;28;20243;-68
2023/04/12 09:52:06;;;;;;;11.10;2.65;;;;;;;;;;5029676;28;20219;-67
2023/04/12 09:54:32;;;;;;;14.32;2.85;;;;;;;;;;4989252;28;20221;-68
2023/04/12 09:56:58;;;;;;;13.88;2.72;;;;;;;;;;5012180;28;20204;-68
2023/04/12 09:59:23;;;;;;;17.95;3.70;;;;;;;;;;4994046;28;20213;-68
2023/04/12 10:01:48;;;;;;;14.55;3.20;;;;;;;;;;4985598;28;20225;-68
2023/04/12 10:04:14;;;;;;;13.73;3.20;;;;;;;;;;4992547;28;20231;-68
2023/04/12 10:06:40;;;;;;;14.75;3.08;;;;;;;;;;5012013;28;20259;-68
2023/04/12 10:09:07;;;;;;;17.77;3.50;;;;;;;;;;5010937;28;20684;-68
2023/04/12 10:11:33;;;;;;;13.40;3.72;;;;;;;;;;5011557;28;20292;-68
2023/04/12 10:13:58;;;;;;;14.40;3.17;;;;;;;;;;4994309;28;20291;-68
2023/04/12 10:16:25;;;;;;;14.43;3.42;;;;;;;;;;5010659;28;20691;-68
2023/04/12 10:18:51;;;;;;;18.80;3.45;;;;;;;;;;5012037;28;20204;-69
2023/04/12 10:21:16;;;;;;;14.80;3.17;;;;;;;;;;4997158;28;20282;-67
2023/04/12 10:23:43;;;;;;;14.82;3.15;;;;;;;;;;5012920;28;20216;-68
2023/04/12 10:26:08;;;;;;;13.85;3.42;;;;;;;;;;4997080;28;20221;-67
2023/04/12 10:28:33;;;;;;;21.10;3.88;;;;;;;;;;4996853;28;20623;-68
2023/04/12 10:30:59;;;;;;;13.60;3.13;;;;;;;;;;5015169;28;20231;-68
2023/04/12 10:33:25;;;;;;;14.57;5.22;;;;;;;;;;5025186;28;20207;-68
2023/04/12 10:35:51;;;;;;;15.55;3.15;;;;;;;;;;5018234;28;20672;-68
2023/04/12 10:38:16;;;;;;;13.75;3.10;;;;;;;;;;5014765;28;20205;-67
2023/04/12 10:41:00;;;;;;;17.98;3.60;;;;;;;;;;5014870;28;20214;-69
2023/04/12 10:43:26;;;;;;;13.13;3.13;;;;;;;;;;5013382;28;20679;-68
2023/04/12 10:45:51;;;;;;;14.52;3.50;;;;;;;;;;4995286;28;20598;-67
2023/04/12 10:48:30;;;;;;;12.70;2.92;;;;;;;;;;4998697;28;20200;-67
2023/04/12 10:51:16;;;;;;;18.73;3.42;;;;;;;;;;4979231;28;20644;-67
2023/04/12 10:53:42;;;;;;;18.30;3.20;;;;;;;;;;4982342;28;20769;-67
2023/04/12 10:56:37;;;;;;;17.63;3.40;;;;;;;;;;4976090;28;20560;-68
2023/04/12 10:59:03;;;;;;;14.23;3.58;;;;;;;;;;4971188;28;20214;-66
2023/04/12 11:01:28;;;;;;;14.50;2.80;;;;;;;;;;4988740;28;20221;-67
2023/04/12 11:04:05;;;;;;;19.45;3.25;;;;;;;;;;4987753;28;20213;-66
2023/04/12 11:06:41;;;;;;;14.60;2.92;;;;;;;;;;4988348;28;20221;-66
2023/04/12 11:09:12;;;;;;;17.13;3.33;;;;;;;;;;4972339;28;20304;-66
2023/04/12 11:11:37;;;;;;;17.88;3.58;;;;;;;;;;4970995;28;20222;-66
2023/04/12 11:14:03;;;;;;;14.52;3.22;;;;;;;;;;4980750;28;20220;-66
2023/04/12 11:16:28;;;;;;;18.42;3.50;;;;;;;;;;4978999;28;20221;-67
2023/04/12 11:18:54;;;;;;;18.00;3.50;;;;;;;;;;4980690;28;20221;-66
2023/04/12 11:21:19;;;;;;;19.67;3.47;;;;;;;;;;4983329;28;20587;-66
2023/04/12 11:23:45;;;;;;;17.25;3.72;;;;;;;;;;4979153;28;20296;-66
2023/04/12 11:26:10;;;;;;;14.45;3.70;;;;;;;;;;4970609;28;20230;-65
2023/04/12 11:28:35;;;;;;;12.45;2.88;;;;;;;;;;4969215;28;20448;-66
2023/04/12 11:31:01;;;;;;;15.88;3.33;;;;;;;;;;4968217;28;20214;-65
2023/04/12 11:33:30;;;;;;;15.15;2.92;;;;;;;;;;4983397;28;20217;-66
2023/04/12 11:35:56;;;;;;;14.40;3.20;;;;;;;;;;4982999;28;20474;-66
2023/04/12 11:38:21;;;;;;;14.05;2.30;;;;;;;;;;4976380;28;20222;-68
2023/04/12 11:40:47;;;;;;;14.02;3.15;;;;;;;;;;4978235;28;20263;-67
2023/04/12 11:43:17;;;;;;;14.13;3.10;;;;;;;;;;4978986;28;20259;-67
2023/04/12 11:45:43;;;;;;;21.02;3.42;;;;;;;;;;4978633;28;20226;-68
2023/04/12 11:48:08;;;;;;;13.30;3.40;;;;;;;;;;4973895;28;20206;-67
2023/04/12 11:50:36;;;;;;;17.67;3.30;;;;;;;;;;4984234;28;20232;-65
2023/04/12 11:53:11;;;;;;;14.35;3.00;;;;;;;;;;4986304;28;20315;-68
2023/04/12 11:55:37;;;;;;;17.30;3.63;;;;;;;;;;4981551;28;20235;-67
2023/04/12 11:58:02;;;;;;;17.40;3.22;;;;;;;;;;4986714;28;20216;-66
2023/04/12 12:00:30;;;;;;;15.60;3.47;;;;;;;;;;4990705;28;20748;-68
2023/04/12 12:02:55;;;;;;;16.30;3.10;;;;;;;;;;4997663;28;20615;-68
2023/04/12 12:05:21;;;;;;;17.90;3.92;;;;;;;;;;4998535;28;20291;-67
2023/04/12 12:07:46;;;;;;;20.83;3.55;;;;;;;;;;5004431;28;20590;-67
2023/04/12 12:10:11;;;;;;;15.48;3.75;;;;;;;;;;4991995;28;20207;-67
2023/04/12 12:12:37;;;;;;;16.77;3.45;;;;;;;;;;4985776;28;20599;-68
2023/04/12 12:15:02;;;;;;;15.73;3.33;;;;;;;;;;4985268;28;20213;-66
2023/04/12 12:17:27;;;;;;;16.77;3.67;;;;;;;;;;4985951;28;20574;-66
2023/04/12 12:19:55;;;;;;;18.75;3.58;;;;;;;;;;4985826;28;20209;-66
2023/04/12 12:22:20;;;;;;;24.80;6.40;;;;;;;;;;4979815;28;20569;-66
2023/04/12 12:24:50;;;;;;;21.02;6.80;;;;;;;;;;4981097;28;20272;-66
2023/04/12 12:27:16;;;;;;;14.57;3.05;;;;;;;;;;4978569;28;20225;-66
2023/04/12 12:29:42;;;;;;;34.05;15.45;;;;;;;;;;4972449;28;20679;-66
2023/04/12 12:32:09;;;;;;;17.63;5.13;;;;;;;;;;4987860;28;20220;-66
2023/04/12 12:34:35;;;;;;;14.95;2.65;;;;;;;;;;4981863;28;20217;-66
2023/04/12 12:37:01;;;;;;;16.27;3.38;;;;;;;;;;4984181;28;20213;-63
2023/04/12 12:39:26;;;;;;;17.23;3.08;;;;;;;;;;4985940;28;20299;-64
2023/04/12 12:41:53;;;;;;;11.38;2.53;;;;;;;;;;4985279;28;20232;-65
2023/04/12 12:44:18;;;;;;;13.85;2.67;;;;;;;;;;4979576;28;20224;-65
2023/04/12 12:46:43;;;;;;;12.88;2.45;;;;;;;;;;4984632;28;20223;-65
2023/04/12 12:49:09;;;;;;;16.48;2.53;;;;;;;;;;4979638;28;20213;-64
2023/04/12 12:51:34;;;;;;;13.65;2.58;;;;;;;;;;4981194;28;20225;-64
2023/04/12 12:54:00;;;;;;;13.23;3.05;;;;;;;;;;4985012;28;20229;-65
2023/04/12 12:56:25;;;;;;;13.43;2.50;;;;;;;;;;4984076;28;20760;-64
2023/04/12 12:58:50;;;;;;;12.88;2.50;;;;;;;;;;4966919;28;20217;-65
2023/04/12 13:01:16;;;;;;;12.65;2.70;;;;;;;;;;4965608;28;20240;-64
2023/04/12 13:03:41;;;;;;;14.55;2.67;;;;;;;;;;4983698;28;20219;-64
2023/04/12 13:06:07;;;;;;;19.73;3.10;;;;;;;;;;4966393;28;20235;-64
2023/04/12 13:08:34;;;;;;;14.15;2.50;;;;;;;;;;4976370;28;20229;-65
2023/04/12 13:10:59;;;;;;;9.80;2.22;;;;;;;;;;4966452;28;20284;-65
2023/04/12 13:13:25;;;;;;;7.20;2.00;;;;;;;;;;4960063;28;20328;-64
2023/04/12 13:15:51;;;;;;;8.85;1.88;;;;;;;;;;4965346;28;20708;-64
2023/04/12 13:18:17;;;;;;;8.65;1.30;;;;;;;;;;4964776;28;20305;-65
2023/04/12 13:20:42;;;;;;;5.78;1.35;;;;;;;;;;4979920;28;20227;-64
2023/04/12 13:23:07;;;;;;;5.68;1.17;;;;;;;;;;4965311;28;20308;-64
2023/04/12 13:25:33;;;;;;;10.40;2.13;;;;;;;;;;4966013;28;20786;-64
2023/04/12 13:27:58;;;;;;;9.57;1.40;;;;;;;;;;4984649;28;20647;-64
2023/04/12 13:30:23;;;;;;;8.18;1.52;;;;;;;;;;4977538;28;20284;-64
2023/04/12 13:32:48;;;;;;;10.50;1.52;;;;;;;;;;4976381;28;20217;-65
2023/04/12 13:35:14;;;;;;;7.35;1.50;;;;;;;;;;4977436;28;20217;-69
2023/04/12 13:37:39;;;;;;;6.78;1.23;;;;;;;;;;4982279;28;20238;-67
2023/04/12 13:40:05;;;;;;;5.70;1.48;;;;;;;;;;4983541;28;20221;-65
2023/04/12 13:42:30;;;;;;;5.45;1.20;;;;;;;;;;4984277;28;20256;-65
2023/04/12 13:44:56;;;;;;;10.77;1.50;;;;;;;;;;4984274;28;20700;-66
2023/04/12 13:47:21;;;;;;;5.82;1.30;;;;;;;;;;4978313;28;20218;-65
2023/04/12 13:49:46;;;;;;;6.85;1.52;;;;;;;;;;4965504;28;20332;-65
2023/04/12 13:52:15;;;;;;;9.60;2.40;;;;;;;;;;4963172;28;20221;-65
2023/04/12 13:54:41;;;;;;;9.07;2.22;;;;;;;;;;4982779;28;20224;-65
2023/04/12 13:57:07;;;;;;;10.38;1.67;;;;;;;;;;4980116;28;20217;-65
2023/04/12 13:59:32;;;;;;;7.53;1.40;;;;;;;;;;4985595;28;20588;-65
2023/04/12 14:01:57;;;;;;;11.65;3.60;;;;;;;;;;5007765;28;20298;-65
2023/04/12 14:04:26;;;;;;;9.38;3.08;;;;;;;;;;5006515;28;20256;-65
2023/04/12 14:06:51;;;;;;;10.60;3.47;;;;;;;;;;5007477;28;20331;-65
2023/04/12 14:09:24;;;;;;;13.27;5.00;;;;;;;;;;5006708;28;20928;-65
2023/04/12 14:11:49;;;;;;;7.45;2.03;;;;;;;;;;4989858;28;20233;-66
2023/04/12 14:14:15;;;;;;;11.30;2.70;;;;;;;;;;4985918;28;20244;-65
2023/04/12 14:16:40;;;;;;;15.05;7.13;;;;;;;;;;4979009;28;20651;-65
2023/04/12 14:19:05;;;;;;;15.98;7.60;;;;;;;;;;4999456;28;20741;-64
2023/04/12 14:21:31;;;;;;;27.95;13.43;;;;;;;;;;5001510;28;20300;-65
2023/04/12 14:23:56;;;;;;;11.95;5.60;;;;;;;;;;4999108;28;20216;-65
2023/04/12 14:26:24;;;;;;;15.30;4.75;;;;;;;;;;4989256;28;20312;-64
2023/04/12 14:28:50;;;;;;;15.15;5.13;;;;;;;;;;5007975;28;20869;-64
2023/04/12 14:31:15;;;;;;;10.25;2.38;;;;;;;;;;5008131;28;20225;-64